sensor_id;sensor_type;location;lat;lon;timestamp;pressure;altitude;pressure_sealevel;temperature;humidity
78990;BME280;68390;52.130;21.218;2024-01-30T00:01:51;102369.69;;;-0.99;100.00
78990;BME280;68390;52.130;21.218;2024-01-30T00:04:16;102365.22;;;-1.00;100.00
78990;BME280;68390;52.130;21.218;2024-01-30T00:06:42;102366.06;;;-0.98;100.00
78990;BME280;68390;52.130;21.218;2024-01-30T00:09:08;102358.97;;;-1.02;100.00
78990;BME280;68390;52.130;21.218;2024-01-30T00:11:34;102361.50;;;-0.96;100.00
78990;BME280;68390;52.130;21.218;2024-01-30T00:13:59;102349.03;;;-1.00;100.00
78990;BME280;68390;52.130;21.218;2024-01-30T00:16:25;102356.19;;;-0.99;100.00
78990;BME280;68390;52.130;21.218;2024-01-30T00:18:54;102340.31;;;-1.08;100.00
78990;BME280;68390;52.130;21.218;2024-01-30T00:21:20;102340.41;;;-1.11;100.00
78990;BME280;68390;52.130;21.218;2024-01-30T00:23:45;102343.84;;;-1.06;100.00
78990;BME280;68390;52.130;21.218;2024-01-30T00:26:11;102320.53;;;-1.07;100.00
78990;BME280;68390;52.130;21.218;2024-01-30T00:28:37;102327.56;;;-1.03;100.00
78990;BME280;68390;52.130;21.218;2024-01-30T00:31:03;102318.75;;;-1.08;100.00
78990;BME280;68390;52.130;21.218;2024-01-30T00:33:28;102324.16;;;-1.08;100.00
78990;BME280;68390;52.130;21.218;2024-01-30T00:35:54;102319.72;;;-1.11;100.00
78990;BME280;68390;52.130;21.218;2024-01-30T00:38:19;102316.19;;;-1.13;100.00
78990;BME280;68390;52.130;21.218;2024-01-30T00:40:44;102313.75;;;-1.20;100.00
78990;BME280;68390;52.130;21.218;2024-01-30T00:43:10;102311.06;;;-1.20;100.00
78990;BME280;68390;52.130;21.218;2024-01-30T00:45:35;102315.59;;;-1.22;100.00
78990;BME280;68390;52.130;21.218;2024-01-30T00:48:01;102308.41;;;-1.22;100.00
78990;BME280;68390;52.130;21.218;2024-01-30T00:50:26;102304.94;;;-1.25;100.00
78990;BME280;68390;52.130;21.218;2024-01-30T00:52:51;102299.47;;;-1.24;100.00
78990;BME280;68390;52.130;21.218;2024-01-30T00:55:17;102311.06;;;-1.20;100.00
78990;BME280;68390;52.130;21.218;2024-01-30T00:57:42;102316.50;;;-1.22;100.00
78990;BME280;68390;52.130;21.218;2024-01-30T01:00:08;102305.13;;;-1.31;100.00
78990;BME280;68390;52.130;21.218;2024-01-30T01:02:35;102311.16;;;-1.23;100.00
78990;BME280;68390;52.130;21.218;2024-01-30T01:05:01;102306.69;;;-1.24;100.00
78990;BME280;68390;52.130;21.218;2024-01-30T01:07:26;102315.66;;;-1.24;100.00
78990;BME280;68390;52.130;21.218;2024-01-30T01:09:51;102313.06;;;-1.27;100.00
78990;BME280;68390;52.130;21.218;2024-01-30T01:12:17;102321.19;;;-1.28;100.00
78990;BME280;68390;52.130;21.218;2024-01-30T01:14:42;102310.59;;;-1.34;100.00
78990;BME280;68390;52.130;21.218;2024-01-30T01:17:07;102308.84;;;-1.35;100.00
78990;BME280;68390;52.130;21.218;2024-01-30T01:19:33;102304.53;;;-1.41;100.00
78990;BME280;68390;52.130;21.218;2024-01-30T01:21:58;102300.06;;;-1.42;100.00
78990;BME280;68390;52.130;21.218;2024-01-30T01:24:23;102308.09;;;-1.40;100.00
78990;BME280;68390;52.130;21.218;2024-01-30T01:26:49;102303.56;;;-1.38;100.00
78990;BME280;68390;52.130;21.218;2024-01-30T01:29:14;102299.22;;;-1.44;100.00
78990;BME280;68390;52.130;21.218;2024-01-30T01:31:41;102314.41;;;-1.41;100.00
78990;BME280;68390;52.130;21.218;2024-01-30T01:34:10;102301.88;;;-1.42;100.00
78990;BME280;68390;52.130;21.218;2024-01-30T01:36:35;102298.41;;;-1.46;100.00
78990;BME280;68390;52.130;21.218;2024-01-30T01:39:01;102300.31;;;-1.50;100.00
78990;BME280;68390;52.130;21.218;2024-01-30T01:41:30;102301.25;;;-1.51;100.00
78990;BME280;68390;52.130;21.218;2024-01-30T01:43:56;102291.47;;;-1.55;100.00
78990;BME280;68390;52.130;21.218;2024-01-30T01:46:22;102305.81;;;-1.54;100.00
78990;BME280;68390;52.130;21.218;2024-01-30T01:48:47;102298.75;;;-1.57;100.00
78990;BME280;68390;52.130;21.218;2024-01-30T01:51:14;102293.44;;;-1.60;100.00
78990;BME280;68390;52.130;21.218;2024-01-30T01:53:39;102295.25;;;-1.60;100.00
78990;BME280;68390;52.130;21.218;2024-01-30T01:56:06;102299.75;;;-1.61;100.00
78990;BME280;68390;52.130;21.218;2024-01-30T01:58:31;102292.56;;;-1.60;100.00
78990;BME280;68390;52.130;21.218;2024-01-30T02:00:58;102290.75;;;-1.60;100.00
78990;BME280;68390;52.130;21.218;2024-01-30T02:03:24;102297.06;;;-1.61;100.00
78990;BME280;68390;52.130;21.218;2024-01-30T02:05:50;102293.47;;;-1.61;100.00
78990;BME280;68390;52.130;21.218;2024-01-30T02:08:16;102294.41;;;-1.62;100.00
78990;BME280;68390;52.130;21.218;2024-01-30T02:10:42;102266.16;;;-1.77;100.00
78990;BME280;68390;52.130;21.218;2024-01-30T02:13:07;102290.78;;;-1.61;100.00
78990;BME280;68390;52.130;21.218;2024-01-30T02:15:33;102282.84;;;-1.66;100.00
78990;BME280;68390;52.130;21.218;2024-01-30T02:17:58;102288.13;;;-1.63;100.00
78990;BME280;68390;52.130;21.218;2024-01-30T02:20:24;102290.88;;;-1.64;100.00
78990;BME280;68390;52.130;21.218;2024-01-30T02:22:52;102282.78;;;-1.64;100.00
78990;BME280;68390;52.130;21.218;2024-01-30T02:25:17;102281.91;;;-1.65;100.00
78990;BME280;68390;52.130;21.218;2024-01-30T02:27:43;102275.72;;;-1.67;100.00
78990;BME280;68390;52.130;21.218;2024-01-30T02:30:09;102280.25;;;-1.69;100.00
78990;BME280;68390;52.130;21.218;2024-01-30T02:32:34;102284.72;;;-1.68;100.00
78990;BME280;68390;52.130;21.218;2024-01-30T02:34:59;102278.41;;;-1.67;100.00
78990;BME280;68390;52.130;21.218;2024-01-30T02:37:25;102281.09;;;-1.67;100.00
78990;BME280;68390;52.130;21.218;2024-01-30T02:39:50;102281.97;;;-1.66;100.00
78990;BME280;68390;52.130;21.218;2024-01-30T02:42:15;102284.56;;;-1.63;100.00
78990;BME280;68390;52.130;21.218;2024-01-30T02:44:41;102273.03;;;-1.67;100.00
78990;BME280;68390;52.130;21.218;2024-01-30T02:47:06;102288.09;;;-1.61;100.00
78990;BME280;68390;52.130;21.218;2024-01-30T02:49:31;102283.56;;;-1.59;100.00
78990;BME280;68390;52.130;21.218;2024-01-30T02:51:57;102262.25;;;-1.67;100.00
78990;BME280;68390;52.130;21.218;2024-01-30T02:54:22;102251.56;;;-1.70;100.00
78990;BME280;68390;52.130;21.218;2024-01-30T02:56:48;102266.59;;;-1.63;100.00
78990;BME280;68390;52.130;21.218;2024-01-30T02:59:13;102279.88;;;-1.57;100.00
78990;BME280;68390;52.130;21.218;2024-01-30T03:01:44;102267.53;;;-1.64;100.00
78990;BME280;68390;52.130;21.218;2024-01-30T03:04:11;102278.22;;;-1.61;100.00
78990;BME280;68390;52.130;21.218;2024-01-30T03:06:37;102280.09;;;-1.64;100.00
78990;BME280;68390;52.130;21.218;2024-01-30T03:09:02;102271.97;;;-1.63;100.00
78990;BME280;68390;52.130;21.218;2024-01-30T03:11:28;102274.66;;;-1.63;100.00
78990;BME280;68390;52.130;21.218;2024-01-30T03:13:53;102280.97;;;-1.64;100.00
78990;BME280;68390;52.130;21.218;2024-01-30T03:16:19;102264.13;;;-1.70;100.00
78990;BME280;68390;52.130;21.218;2024-01-30T03:18:44;102277.56;;;-1.69;100.00
78990;BME280;68390;52.130;21.218;2024-01-30T03:21:09;102266.06;;;-1.75;100.00
78990;BME280;68390;52.130;21.218;2024-01-30T03:23:35;102269.53;;;-1.70;100.00
78990;BME280;68390;52.130;21.218;2024-01-30T03:26:00;102277.66;;;-1.72;100.00
78990;BME280;68390;52.130;21.218;2024-01-30T03:28:25;102269.56;;;-1.72;100.00
78990;BME280;68390;52.130;21.218;2024-01-30T03:30:51;102276.81;;;-1.74;100.00
78990;BME280;68390;52.130;21.218;2024-01-30T03:33:16;102254.75;;;-1.87;100.00
78990;BME280;68390;52.130;21.218;2024-01-30T03:35:42;102273.28;;;-1.76;100.00
78990;BME280;68390;52.130;21.218;2024-01-30T03:38:08;102262.56;;;-1.77;100.00
78990;BME280;68390;52.130;21.218;2024-01-30T03:40:33;102269.69;;;-1.76;100.00
78990;BME280;68390;52.130;21.218;2024-01-30T03:42:58;102272.47;;;-1.78;100.00
78990;BME280;68390;52.130;21.218;2024-01-30T03:45:24;102270.69;;;-1.79;100.00
78990;BME280;68390;52.130;21.218;2024-01-30T03:47:49;102277.94;;;-1.81;100.00
78990;BME280;68390;52.130;21.218;2024-01-30T03:50:14;102269.81;;;-1.79;100.00
78990;BME280;68390;52.130;21.218;2024-01-30T03:52:40;102267.06;;;-1.78;100.00
78990;BME280;68390;52.130;21.218;2024-01-30T03:55:05;102252.06;;;-1.87;100.00
78990;BME280;68390;52.130;21.218;2024-01-30T03:57:31;102261.78;;;-1.81;100.00
78990;BME280;68390;52.130;21.218;2024-01-30T03:59:57;102261.81;;;-1.82;100.00
78990;BME280;68390;52.130;21.218;2024-01-30T04:02:42;102254.94;;;-1.93;100.00
78990;BME280;68390;52.130;21.218;2024-01-30T04:05:07;102257.50;;;-1.88;100.00
78990;BME280;68390;52.130;21.218;2024-01-30T04:07:33;102268.16;;;-1.85;100.00
78990;BME280;68390;52.130;21.218;2024-01-30T04:09:58;102261.09;;;-1.88;100.00
78990;BME280;68390;52.130;21.218;2024-01-30T04:12:24;102248.94;;;-2.02;100.00
78990;BME280;68390;52.130;21.218;2024-01-30T04:14:49;102255.19;;;-2.00;100.00
78990;BME280;68390;52.130;21.218;2024-01-30T04:17:14;102226.00;;;-2.15;100.00
78990;BME280;68390;52.130;21.218;2024-01-30T04:19:40;102250.72;;;-2.01;100.00
78990;BME280;68390;52.130;21.218;2024-01-30T04:22:05;102238.25;;;-2.05;100.00
78990;BME280;68390;52.130;21.218;2024-01-30T04:24:31;102256.03;;;-1.98;100.00
78990;BME280;68390;52.130;21.218;2024-01-30T04:26:56;102267.53;;;-1.93;100.00
78990;BME280;68390;52.130;21.218;2024-01-30T04:29:21;102272.91;;;-1.93;100.00
78990;BME280;68390;52.130;21.218;2024-01-30T04:31:47;102236.69;;;-2.12;100.00
78990;BME280;68390;52.130;21.218;2024-01-30T04:34:13;102228.81;;;-2.18;100.00
78990;BME280;68390;52.130;21.218;2024-01-30T04:36:38;102245.56;;;-2.09;100.00
78990;BME280;68390;52.130;21.218;2024-01-30T04:39:03;102266.78;;;-1.98;100.00
78990;BME280;68390;52.130;21.218;2024-01-30T04:41:29;102249.16;;;-2.08;100.00
78990;BME280;68390;52.130;21.218;2024-01-30T04:43:56;102244.69;;;-2.09;100.00
78990;BME280;68390;52.130;21.218;2024-01-30T04:46:22;102254.38;;;-2.04;100.00
78990;BME280;68390;52.130;21.218;2024-01-30T04:48:47;102258.88;;;-2.04;100.00
78990;BME280;68390;52.130;21.218;2024-01-30T04:51:12;102251.09;;;-2.15;100.00
78990;BME280;68390;52.130;21.218;2024-01-30T04:53:38;102243.97;;;-2.16;100.00
78990;BME280;68390;52.130;21.218;2024-01-30T04:56:05;102212.25;;;-2.36;100.00
78990;BME280;68390;52.130;21.218;2024-01-30T04:58:30;102254.59;;;-2.11;100.00
78990;BME280;68390;52.130;21.218;2024-01-30T05:00:56;102242.34;;;-2.22;100.00
78990;BME280;68390;52.130;21.218;2024-01-30T05:03:21;102256.53;;;-2.16;100.00
78990;BME280;68390;52.130;21.218;2024-01-30T05:05:48;102255.66;;;-2.17;100.00
78990;BME280;68390;52.130;21.218;2024-01-30T05:08:13;102278.78;;;-2.10;100.00
78990;BME280;68390;52.130;21.218;2024-01-30T05:10:38;102265.50;;;-2.16;100.00
78990;BME280;68390;52.130;21.218;2024-01-30T05:13:04;102257.47;;;-2.17;100.00
78990;BME280;68390;52.130;21.218;2024-01-30T05:15:29;102263.66;;;-2.14;100.00
78990;BME280;68390;52.130;21.218;2024-01-30T05:17:54;102246.03;;;-2.26;100.00
78990;BME280;68390;52.130;21.218;2024-01-30T05:20:20;102251.34;;;-2.23;100.00
78990;BME280;68390;52.130;21.218;2024-01-30T05:22:46;102250.41;;;-2.22;100.00
78990;BME280;68390;52.130;21.218;2024-01-30T05:25:12;102264.66;;;-2.18;100.00
78990;BME280;68390;52.130;21.218;2024-01-30T05:27:38;102223.97;;;-2.38;100.00
78990;BME280;68390;52.130;21.218;2024-01-30T05:30:05;102254.88;;;-2.20;100.00
78990;BME280;68390;52.130;21.218;2024-01-30T05:32:31;102246.88;;;-2.24;100.00
78990;BME280;68390;52.130;21.218;2024-01-30T05:34:56;102245.03;;;-2.22;100.00
78990;BME280;68390;52.130;21.218;2024-01-30T05:37:22;102252.16;;;-2.19;100.00
78990;BME280;68390;52.130;21.218;2024-01-30T05:39:47;102241.69;;;-2.30;100.00
78990;BME280;68390;52.130;21.218;2024-01-30T05:42:12;102230.00;;;-2.29;100.00
78990;BME280;68390;52.130;21.218;2024-01-30T05:44:38;102253.09;;;-2.22;100.00
78990;BME280;68390;52.130;21.218;2024-01-30T05:47:03;102244.28;;;-2.27;100.00
78990;BME280;68390;52.130;21.218;2024-01-30T05:49:29;102239.00;;;-2.30;100.00
78990;BME280;68390;52.130;21.218;2024-01-30T05:51:54;102252.19;;;-2.20;100.00
78990;BME280;68390;52.130;21.218;2024-01-30T05:54:19;102239.81;;;-2.28;100.00
78990;BME280;68390;52.130;21.218;2024-01-30T05:56:45;102254.00;;;-2.21;100.00
78990;BME280;68390;52.130;21.218;2024-01-30T05:59:10;102260.25;;;-2.20;100.00
78990;BME280;68390;52.130;21.218;2024-01-30T06:01:35;102259.44;;;-2.24;100.00
78990;BME280;68390;52.130;21.218;2024-01-30T06:04:01;102262.19;;;-2.26;100.00
78990;BME280;68390;52.130;21.218;2024-01-30T06:06:26;102269.19;;;-2.18;100.00
78990;BME280;68390;52.130;21.218;2024-01-30T06:08:52;102256.69;;;-2.21;100.00
78990;BME280;68390;52.130;21.218;2024-01-30T06:11:20;102269.91;;;-2.13;100.00
78990;BME280;68390;52.130;21.218;2024-01-30T06:13:45;102269.03;;;-2.14;100.00
78990;BME280;68390;52.130;21.218;2024-01-30T06:16:12;102262.69;;;-2.11;100.00
78990;BME280;68390;52.130;21.218;2024-01-30T06:18:37;102268.91;;;-2.09;100.00
78990;BME280;68390;52.130;21.218;2024-01-30T06:21:04;102264.44;;;-2.10;100.00
78990;BME280;68390;52.130;21.218;2024-01-30T06:23:29;102267.91;;;-2.07;100.00
78990;BME280;68390;52.130;21.218;2024-01-30T06:25:55;102268.91;;;-2.09;100.00
78990;BME280;68390;52.130;21.218;2024-01-30T06:28:20;102252.81;;;-2.11;100.00
78990;BME280;68390;52.130;21.218;2024-01-30T06:30:45;102263.50;;;-2.08;100.00
78990;BME280;68390;52.130;21.218;2024-01-30T06:33:14;102261.72;;;-2.09;100.00
78990;BME280;68390;52.130;21.218;2024-01-30T06:35:40;102259.16;;;-2.13;100.00
78990;BME280;68390;52.130;21.218;2024-01-30T06:38:06;102266.09;;;-2.06;100.00
78990;BME280;68390;52.130;21.218;2024-01-30T06:40:31;102263.38;;;-2.05;100.00
78990;BME280;68390;52.130;21.218;2024-01-30T06:42:57;102253.53;;;-2.06;100.00
78990;BME280;68390;52.130;21.218;2024-01-30T06:45:22;102255.25;;;-2.03;100.00
78990;BME280;68390;52.130;21.218;2024-01-30T06:47:47;102242.66;;;-2.01;100.00
78990;BME280;68390;52.130;21.218;2024-01-30T06:50:13;102251.56;;;-1.99;100.00
78990;BME280;68390;52.130;21.218;2024-01-30T06:52:38;102248.75;;;-1.96;100.00
78990;BME280;68390;52.130;21.218;2024-01-30T06:55:04;102248.72;;;-1.95;100.00
78990;BME280;68390;52.130;21.218;2024-01-30T06:57:29;102254.00;;;-1.92;100.00
78990;BME280;68390;52.130;21.218;2024-01-30T06:59:55;102247.75;;;-1.92;100.00
78990;BME280;68390;52.130;21.218;2024-01-30T07:02:21;102251.28;;;-1.90;100.00
78990;BME280;68390;52.130;21.218;2024-01-30T07:04:46;102250.25;;;-1.86;100.00
78990;BME280;68390;52.130;21.218;2024-01-30T07:07:12;102262.66;;;-1.80;100.00
78990;BME280;68390;52.130;21.218;2024-01-30T07:09:38;102272.13;;;-1.67;100.00
78990;BME280;68390;52.130;21.218;2024-01-30T07:12:04;102270.13;;;-1.61;100.00
78990;BME280;68390;52.130;21.218;2024-01-30T07:14:29;102267.38;;;-1.59;100.00
78990;BME280;68390;52.130;21.218;2024-01-30T07:16:55;102253.97;;;-1.61;100.00
78990;BME280;68390;52.130;21.218;2024-01-30T07:19:20;102252.94;;;-1.57;100.00
78990;BME280;68390;52.130;21.218;2024-01-30T07:21:46;102269.66;;;-1.45;100.00
78990;BME280;68390;52.130;21.218;2024-01-30T07:24:11;102255.44;;;-1.51;100.00
78990;BME280;68390;52.130;21.218;2024-01-30T07:26:37;102265.91;;;-1.41;100.00
78990;BME280;68390;52.130;21.218;2024-01-30T07:29:02;102275.31;;;-1.25;100.00
78990;BME280;68390;52.130;21.218;2024-01-30T07:31:28;102272.97;;;-1.09;100.00
78990;BME280;68390;52.130;21.218;2024-01-30T07:33:54;102225.16;;;-1.31;100.00
78990;BME280;68390;52.130;21.218;2024-01-30T07:36:20;102271.38;;;-0.89;100.00
78990;BME280;68390;52.130;21.218;2024-01-30T07:38:45;102266.19;;;-0.68;100.00
78990;BME280;68390;52.130;21.218;2024-01-30T07:41:11;102247.91;;;-0.60;100.00
78990;BME280;68390;52.130;21.218;2024-01-30T07:43:38;102272.50;;;-0.43;99.55
78990;BME280;68390;52.130;21.218;2024-01-30T07:46:04;102265.81;;;-0.33;98.70
78990;BME280;68390;52.130;21.218;2024-01-30T07:48:29;102264.59;;;-0.24;97.96
78990;BME280;68390;52.130;21.218;2024-01-30T07:50:54;102258.53;;;-0.31;97.76
78990;BME280;68390;52.130;21.218;2024-01-30T07:53:20;102243.41;;;-0.35;97.73
78990;BME280;68390;52.130;21.218;2024-01-30T07:55:45;102259.22;;;-0.24;97.00
78990;BME280;68390;52.130;21.218;2024-01-30T07:58:12;102249.41;;;-0.27;96.73
78990;BME280;68390;52.130;21.218;2024-01-30T08:00:37;102264.38;;;-0.18;97.37
78990;BME280;68390;52.130;21.218;2024-01-30T08:03:03;102257.03;;;-0.15;97.58
78990;BME280;68390;52.130;21.218;2024-01-30T08:05:29;102269.84;;;0.04;95.89
78990;BME280;68390;52.130;21.218;2024-01-30T08:07:54;102254.44;;;0.07;95.57
78990;BME280;68390;52.130;21.218;2024-01-30T08:10:20;102272.56;;;0.27;95.10
78990;BME280;68390;52.130;21.218;2024-01-30T08:12:45;102258.66;;;0.38;94.91
78990;BME280;68390;52.130;21.218;2024-01-30T08:15:11;102254.81;;;0.43;94.95
78990;BME280;68390;52.130;21.218;2024-01-30T08:17:37;102246.66;;;0.45;94.73
78990;BME280;68390;52.130;21.218;2024-01-30T08:20:03;102251.50;;;0.58;93.49
78990;BME280;68390;52.130;21.218;2024-01-30T08:22:30;102256.59;;;0.66;92.31
78990;BME280;68390;52.130;21.218;2024-01-30T08:24:55;102247.38;;;0.71;93.37
78990;BME280;68390;52.130;21.218;2024-01-30T08:27:20;102238.19;;;0.76;92.11
78990;BME280;68390;52.130;21.218;2024-01-30T08:29:46;102248.38;;;0.91;91.75
78990;BME280;68390;52.130;21.218;2024-01-30T08:32:11;102233.66;;;0.98;90.95
78990;BME280;68390;52.130;21.218;2024-01-30T08:34:36;102240.56;;;1.05;89.86
78990;BME280;68390;52.130;21.218;2024-01-30T08:37:02;102243.84;;;1.13;88.24
78990;BME280;68390;52.130;21.218;2024-01-30T08:39:28;102239.03;;;1.20;90.64
78990;BME280;68390;52.130;21.218;2024-01-30T08:41:53;102231.47;;;1.28;89.10
78990;BME280;68390;52.130;21.218;2024-01-30T08:44:19;102234.91;;;1.31;88.86
78990;BME280;68390;52.130;21.218;2024-01-30T08:46:44;102247.94;;;1.43;88.16
78990;BME280;68390;52.130;21.218;2024-01-30T08:49:11;102250.47;;;1.46;87.26
78990;BME280;68390;52.130;21.218;2024-01-30T08:51:38;102252.00;;;1.54;87.68
78990;BME280;68390;52.130;21.218;2024-01-30T08:54:04;102249.00;;;1.60;87.19
78990;BME280;68390;52.130;21.218;2024-01-30T08:56:29;102254.88;;;1.69;86.97
78990;BME280;68390;52.130;21.218;2024-01-30T08:58:55;102240.34;;;1.72;86.09
78990;BME280;68390;52.130;21.218;2024-01-30T09:01:20;102241.81;;;1.79;85.01
78990;BME280;68390;52.130;21.218;2024-01-30T09:03:45;102241.38;;;1.88;85.03
78990;BME280;68390;52.130;21.218;2024-01-30T09:06:12;102244.66;;;1.96;84.36
78990;BME280;68390;52.130;21.218;2024-01-30T09:08:38;102245.16;;;2.04;84.19
78990;BME280;68390;52.130;21.218;2024-01-30T09:11:11;102243.72;;;2.16;84.59
78990;BME280;68390;52.130;21.218;2024-01-30T09:13:36;102239.56;;;2.28;84.82
78990;BME280;68390;52.130;21.218;2024-01-30T09:16:02;102236.41;;;2.37;81.91
78990;BME280;68390;52.130;21.218;2024-01-30T09:18:28;102233.13;;;2.49;81.57
78990;BME280;68390;52.130;21.218;2024-01-30T09:20:53;102247.00;;;2.60;80.63
78990;BME280;68390;52.130;21.218;2024-01-30T09:23:19;102240.03;;;2.73;81.88
78990;BME280;68390;52.130;21.218;2024-01-30T09:25:45;102243.03;;;2.86;80.22
78990;BME280;68390;52.130;21.218;2024-01-30T09:28:10;102237.97;;;2.97;79.69
78990;BME280;68390;52.130;21.218;2024-01-30T09:30:35;102232.28;;;3.02;78.17
78990;BME280;68390;52.130;21.218;2024-01-30T09:33:01;102239.09;;;3.10;77.41
78990;BME280;68390;52.130;21.218;2024-01-30T09:35:26;102234.16;;;3.18;78.83
78990;BME280;68390;52.130;21.218;2024-01-30T09:37:52;102237.34;;;3.26;76.43
78990;BME280;68390;52.130;21.218;2024-01-30T09:40:18;102244.13;;;3.35;75.85
78990;BME280;68390;52.130;21.218;2024-01-30T09:42:47;102233.88;;;3.42;75.36
78990;BME280;68390;52.130;21.218;2024-01-30T09:45:18;102234.41;;;3.48;74.95
78990;BME280;68390;52.130;21.218;2024-01-30T09:47:45;102231.28;;;3.56;75.07
78990;BME280;68390;52.130;21.218;2024-01-30T09:50:12;102228.00;;;3.66;73.70
78990;BME280;68390;52.130;21.218;2024-01-30T09:52:39;102225.66;;;3.76;75.12
78990;BME280;68390;52.130;21.218;2024-01-30T09:55:05;102215.59;;;3.78;72.97
78990;BME280;68390;52.130;21.218;2024-01-30T09:57:31;102225.66;;;3.93;74.35
78990;BME280;68390;52.130;21.218;2024-01-30T09:59:57;102224.09;;;4.05;73.38
78990;BME280;68390;52.130;21.218;2024-01-30T10:02:23;102214.56;;;4.14;72.25
78990;BME280;68390;52.130;21.218;2024-01-30T10:04:49;102218.69;;;4.21;71.36
78990;BME280;68390;52.130;21.218;2024-01-30T10:07:16;102208.78;;;4.20;70.75
78990;BME280;68390;52.130;21.218;2024-01-30T10:09:41;102197.66;;;4.24;72.64
78990;BME280;68390;52.130;21.218;2024-01-30T10:12:07;102201.53;;;4.36;70.24
78990;BME280;68390;52.130;21.218;2024-01-30T10:14:34;102200.28;;;4.41;69.57
78990;BME280;68390;52.130;21.218;2024-01-30T10:17:02;102197.94;;;4.51;71.01
78990;BME280;68390;52.130;21.218;2024-01-30T10:19:27;102186.00;;;4.54;69.73
78990;BME280;68390;52.130;21.218;2024-01-30T10:21:52;102172.91;;;4.60;69.04
78990;BME280;68390;52.130;21.218;2024-01-30T10:24:18;102191.88;;;4.77;68.49
78990;BME280;68390;52.130;21.218;2024-01-30T10:26:44;102187.19;;;4.79;67.46
78990;BME280;68390;52.130;21.218;2024-01-30T10:29:09;102182.53;;;4.82;68.89
78990;BME280;68390;52.130;21.218;2024-01-30T10:31:34;102171.81;;;4.78;68.46
78990;BME280;68390;52.130;21.218;2024-01-30T10:34:00;102178.31;;;4.92;69.00
78990;BME280;68390;52.130;21.218;2024-01-30T10:36:28;102172.53;;;4.98;68.48
78990;BME280;68390;52.130;21.218;2024-01-30T10:38:55;102164.25;;;4.99;68.02
78990;BME280;68390;52.130;21.218;2024-01-30T10:41:26;102178.88;;;5.12;69.27
78990;BME280;68390;52.130;21.218;2024-01-30T10:44:04;102171.13;;;5.21;67.02
78990;BME280;68390;52.130;21.218;2024-01-30T10:46:33;102166.28;;;5.26;66.39
78990;BME280;68390;52.130;21.218;2024-01-30T10:49:00;102166.09;;;5.29;65.71
78990;BME280;68390;52.130;21.218;2024-01-30T10:51:27;102156.94;;;5.30;65.51
78990;BME280;68390;52.130;21.218;2024-01-30T10:53:52;102159.31;;;5.36;66.33
78990;BME280;68390;52.130;21.218;2024-01-30T10:56:21;102161.63;;;5.42;66.09
78990;BME280;68390;52.130;21.218;2024-01-30T10:58:47;102153.03;;;5.49;64.71
78990;BME280;68390;52.130;21.218;2024-01-30T11:01:13;102152.72;;;5.54;66.75
78990;BME280;68390;52.130;21.218;2024-01-30T11:03:39;102151.56;;;5.58;65.70
78990;BME280;68390;52.130;21.218;2024-01-30T11:06:05;102151.34;;;5.61;65.20
78990;BME280;68390;52.130;21.218;2024-01-30T11:08:33;102143.50;;;5.71;64.21
78990;BME280;68390;52.130;21.218;2024-01-30T11:10:58;102149.63;;;5.74;64.42
78990;BME280;68390;52.130;21.218;2024-01-30T11:13:31;102137.75;;;5.75;62.99
78990;BME280;68390;52.130;21.218;2024-01-30T11:16:04;102136.78;;;5.76;62.43
78990;BME280;68390;52.130;21.218;2024-01-30T11:18:31;102126.66;;;5.78;63.64
78990;BME280;68390;52.130;21.218;2024-01-30T11:21:00;102125.47;;;5.82;63.04
78990;BME280;68390;52.130;21.218;2024-01-30T11:23:28;102125.03;;;5.90;63.01
78990;BME280;68390;52.130;21.218;2024-01-30T11:25:54;102109.56;;;5.91;62.18
78990;BME280;68390;52.130;21.218;2024-01-30T11:28:21;102126.38;;;5.97;63.38
78990;BME280;68390;52.130;21.218;2024-01-30T11:30:47;102111.09;;;5.95;62.08
78990;BME280;68390;52.130;21.218;2024-01-30T11:33:27;102116.63;;;6.07;62.47
78990;BME280;68390;52.130;21.218;2024-01-30T11:35:53;102108.34;;;6.09;61.84
78990;BME280;68390;52.130;21.218;2024-01-30T11:38:19;102103.97;;;6.06;62.16
78990;BME280;68390;52.130;21.218;2024-01-30T11:40:45;102114.50;;;6.12;62.18
78990;BME280;68390;52.130;21.218;2024-01-30T11:43:11;102121.69;;;6.13;61.82
78990;BME280;68390;52.130;21.218;2024-01-30T11:45:37;102103.69;;;6.11;61.22
78990;BME280;68390;52.130;21.218;2024-01-30T11:48:03;102107.38;;;6.10;62.18
78990;BME280;68390;52.130;21.218;2024-01-30T11:50:30;102107.47;;;6.08;62.06
78990;BME280;68390;52.130;21.218;2024-01-30T12:07:39;102091.94;;;6.23;60.93
78990;BME280;68390;52.130;21.218;2024-01-30T12:10:08;102088.38;;;6.22;59.51
78990;BME280;68390;52.130;21.218;2024-01-30T12:12:34;102090.97;;;6.24;59.79
78990;BME280;68390;52.130;21.218;2024-01-30T12:15:00;102076.88;;;6.17;60.94
78990;BME280;68390;52.130;21.218;2024-01-30T12:17:31;102089.03;;;6.26;59.87
78990;BME280;68390;52.130;21.218;2024-01-30T12:20:09;102085.31;;;6.27;59.57
78990;BME280;68390;52.130;21.218;2024-01-30T12:22:46;102087.06;;;6.28;60.29
78990;BME280;68390;52.130;21.218;2024-01-30T12:25:19;102086.38;;;6.24;60.26
78990;BME280;68390;52.130;21.218;2024-01-30T12:27:49;102076.94;;;6.30;59.88
78990;BME280;68390;52.130;21.218;2024-01-30T12:30:15;102077.50;;;6.35;59.87
78990;BME280;68390;52.130;21.218;2024-01-30T12:32:43;102071.84;;;6.38;60.25
78990;BME280;68390;52.130;21.218;2024-01-30T12:35:16;102076.88;;;6.44;60.20
78990;BME280;68390;52.130;21.218;2024-01-30T12:37:46;102073.28;;;6.44;59.66
78990;BME280;68390;52.130;21.218;2024-01-30T12:40:13;102064.44;;;6.40;59.52
78990;BME280;68390;52.130;21.218;2024-01-30T12:42:40;102079.50;;;6.46;59.04
78990;BME280;68390;52.130;21.218;2024-01-30T12:45:07;102073.16;;;6.45;58.63
78990;BME280;68390;52.130;21.218;2024-01-30T12:47:32;102067.16;;;6.40;59.61